Time;durP1;ratioP1;P1;durP2;ratioP2;P2;SDS_P1;SDS_P2;PMS_P1;PMS_P2;Temp;Humidity;BMP_temperature;BMP_pressure;BME280_temperature;BME280_humidity;BME280_pressure;Samples;Min_cycle;Max_cycle;Signal;HPM_P1;HPM_P2
2022/06/15 00:04:41;;;;;;;2.92;1.67;;;20.80;58.10;;;;;;10412561;28;20046;-58
2022/06/15 00:09:41;;;;;;;1.80;1.45;;;20.80;58.10;;;;;;10410775;28;20029;-58
2022/06/15 00:14:42;;;;;;;2.00;1.48;;;20.80;58.20;;;;;;10412090;28;20056;-59
2022/06/15 00:19:43;;;;;;;2.17;1.35;;;20.70;58.10;;;;;;10410768;28;20042;-59
2022/06/15 00:24:43;;;;;;;1.90;1.38;;;20.80;58.20;;;;;;10418168;28;20065;-58
2022/06/15 00:29:44;;;;;;;2.58;1.45;;;20.70;58.20;;;;;;10419769;28;20417;-58
2022/06/15 00:34:45;;;;;;;4.38;1.40;;;20.80;58.30;;;;;;10419210;28;20132;-58
2022/06/15 00:39:45;;;;;;;1.88;1.10;;;20.70;58.20;;;;;;10417798;28;20508;-59
2022/06/15 00:44:46;;;;;;;1.95;1.45;;;20.70;58.20;;;;;;10419006;28;20113;-58
2022/06/15 00:50:18;;;;;;;2.78;2.03;;;20.70;58.20;;;;;;10420235;28;20033;-59
2022/06/15 00:55:25;;;;;;;1.65;1.20;;;20.70;58.30;;;;;;10415567;28;20060;-57
2022/06/15 01:00:27;;;;;;;2.60;1.48;;;20.70;58.20;;;;;;10417408;28;20385;-58
2022/06/15 01:05:34;;;;;;;2.35;1.48;;;20.70;58.10;;;;;;10418146;28;20037;-59
2022/06/15 01:10:56;;;;;;;2.15;1.50;;;20.70;58.20;;;;;;10416769;28;20171;-58
2022/06/15 01:16:35;;;;;;;2.05;1.20;;;20.70;58.20;;;;;;10416302;28;20529;-58
2022/06/15 01:21:48;;;;;;;3.35;2.35;;;20.70;58.30;;;;;;10418445;28;20061;-58
2022/06/15 01:27:22;;;;;;;2.20;1.42;;;20.70;58.30;;;;;;10416185;28;20041;-59
2022/06/15 01:32:51;;;;;;;2.45;1.38;;;20.70;58.30;;;;;;10405317;28;20025;-58
2022/06/15 01:38:21;;;;;;;3.40;1.45;;;20.60;58.30;;;;;;10415878;28;20047;-58
2022/06/15 01:43:30;;;;;;;1.75;1.02;;;20.60;58.30;;;;;;10403633;28;20037;-58
2022/06/15 01:48:31;;;;;;;2.67;1.55;;;20.60;58.40;;;;;;10418420;28;20026;-58
2022/06/15 01:53:42;;;;;;;2.53;1.17;;;20.60;58.40;;;;;;10416001;28;20041;-59
2022/06/15 01:58:51;;;;;;;2.10;1.40;;;20.60;58.60;;;;;;10415097;28;20029;-59
2022/06/15 02:04:05;;;;;;;2.78;1.40;;;20.60;58.40;;;;;;10414809;28;20037;-58
2022/06/15 02:09:31;;;;;;;2.22;1.58;;;20.60;58.40;;;;;;10414624;28;20044;-58
2022/06/15 02:14:48;;;;;;;2.55;1.63;;;20.60;58.40;;;;;;10404696;28;20086;-58
2022/06/15 02:19:55;;;;;;;2.10;1.40;;;20.60;58.40;;;;;;10414324;28;20071;-58
2022/06/15 02:24:59;;;;;;;1.90;1.23;;;20.60;58.40;;;;;;10414029;28;20038;-58
2022/06/15 02:30:09;;;;;;;3.33;1.75;;;20.60;58.40;;;;;;10413568;28;20120;-58
2022/06/15 02:35:10;;;;;;;1.92;1.40;;;20.60;58.40;;;;;;10413861;28;20080;-58
2022/06/15 02:40:19;;;;;;;2.17;1.30;;;20.60;58.30;;;;;;10413539;28;20065;-58
2022/06/15 02:45:34;;;;;;;1.93;1.43;;;20.60;58.20;;;;;;10412780;28;20072;-58
2022/06/15 02:50:52;;;;;;;3.00;1.65;;;20.60;58.20;;;;;;10415358;28;20040;-58
2022/06/15 02:55:55;;;;;;;2.97;1.58;;;20.50;58.30;;;;;;10412756;28;20026;-58
2022/06/15 03:00:57;;;;;;;2.72;1.50;;;20.60;58.30;;;;;;10412929;28;20052;-58
2022/06/15 03:05:58;;;;;;;2.55;1.65;;;20.50;58.30;;;;;;10412078;28;20037;-59
2022/06/15 03:10:59;;;;;;;2.25;1.55;;;20.50;58.30;;;;;;10410389;28;20028;-58
2022/06/15 03:16:02;;;;;;;1.90;1.40;;;20.50;58.30;;;;;;10412508;28;20075;-58
2022/06/15 03:21:03;;;;;;;2.45;1.50;;;20.50;58.30;;;;;;10412178;28;20409;-58
2022/06/15 03:26:04;;;;;;;2.70;1.35;;;20.50;58.40;;;;;;10412909;28;20422;-58
2022/06/15 03:31:06;;;;;;;3.83;1.85;;;20.50;58.40;;;;;;10413127;28;20084;-58
2022/06/15 03:36:07;;;;;;;5.15;2.28;;;20.50;58.40;;;;;;10412767;28;20055;-58
2022/06/15 03:41:08;;;;;;;2.20;1.80;;;20.50;58.40;;;;;;10412946;28;20452;-58
2022/06/15 03:46:13;;;;;;;2.08;1.33;;;20.50;58.40;;;;;;10412097;28;20044;-58
2022/06/15 03:51:14;;;;;;;2.20;1.40;;;20.40;58.30;;;;;;10414410;28;20030;-59
2022/06/15 03:56:15;;;;;;;2.97;1.77;;;20.40;58.30;;;;;;10413344;28;20406;-58
2022/06/15 04:01:15;;;;;;;6.65;1.65;;;20.40;58.30;;;;;;10420874;28;20041;-58
2022/06/15 04:06:16;;;;;;;1.73;1.52;;;20.40;58.30;;;;;;10420381;28;20033;-58
2022/06/15 04:16:36;;;;;;;;;;;20.40;58.30;;;;;;10421139;28;20405;-59
2022/06/15 04:21:37;;;;;;;2.15;1.50;;;20.40;58.10;;;;;;10418212;28;19917;-58
2022/06/15 04:26:39;;;;;;;2.20;1.70;;;20.40;58.80;;;;;;10419690;28;20045;-58
2022/06/15 04:31:40;;;;;;;2.85;1.60;;;20.40;58.90;;;;;;10419732;28;20533;-58
2022/06/15 04:36:42;;;;;;;2.35;1.15;;;20.40;58.30;;;;;;10434346;28;20038;-59
2022/06/15 04:41:43;;;;;;;1.95;1.42;;;20.40;58.40;;;;;;10419634;28;20112;-58
2022/06/15 04:46:44;;;;;;;4.03;1.58;;;20.40;58.30;;;;;;10417654;28;20129;-57
2022/06/15 04:51:44;;;;;;;5.72;1.70;;;20.40;58.90;;;;;;10419938;28;20038;-57
2022/06/15 04:56:46;;;;;;;8.27;1.73;;;20.50;59.20;;;;;;10417528;28;20160;-55
2022/06/15 05:01:48;;;;;;;8.00;1.77;;;20.50;59.30;;;;;;10410493;28;20065;-56
2022/06/15 05:06:48;;;;;;;6.05;1.92;;;20.50;59.60;;;;;;10417563;28;20047;-54
2022/06/15 05:11:49;;;;;;;5.57;1.75;;;20.50;60.30;;;;;;10417275;28;20097;-55
2022/06/15 05:16:50;;;;;;;4.35;1.67;;;20.60;60.30;;;;;;10417068;28;20108;-56
2022/06/15 05:21:51;;;;;;;4.20;1.67;;;20.60;60.90;;;;;;10416244;28;20065;-56
2022/06/15 05:26:51;;;;;;;7.38;1.77;;;20.60;60.50;;;;;;10416856;28;20108;-56
2022/06/15 05:31:53;;;;;;;10.70;2.38;;;20.60;60.40;;;;;;10417171;28;20030;-57
2022/06/15 05:36:54;;;;;;;7.18;1.92;;;20.60;60.40;;;;;;10416739;28;20057;-57
2022/06/15 05:41:55;;;;;;;5.20;1.45;;;20.60;60.40;;;;;;10403373;28;20438;-57
2022/06/15 05:47:00;;;;;;;11.40;2.45;;;20.60;60.30;;;;;;10413935;28;20029;-56
2022/06/15 05:52:02;;;;;;;7.53;2.05;;;20.60;60.50;;;;;;10411081;28;20462;-56
2022/06/15 05:57:19;;;;;;;6.97;2.13;;;20.60;60.50;;;;;;10414113;28;20033;-57
2022/06/15 06:02:23;;;;;;;8.60;2.40;;;20.60;61.00;;;;;;10412075;28;20596;-58
2022/06/15 06:07:23;;;;;;;8.85;2.63;;;20.60;61.10;;;;;;10413999;28;20037;-60
2022/06/15 06:12:24;;;;;;;11.15;3.22;;;20.60;61.30;;;;;;10409656;28;20025;-58
2022/06/15 06:17:25;;;;;;;14.75;3.03;;;20.50;61.10;;;;;;10410677;28;20045;-57
2022/06/15 06:22:25;;;;;;;6.25;2.53;;;20.60;61.00;;;;;;10413319;28;20057;-57
2022/06/15 06:27:26;;;;;;;10.38;2.72;;;20.60;61.00;;;;;;10413605;28;20037;-58
2022/06/15 06:32:27;;;;;;;7.15;2.08;;;20.50;60.80;;;;;;10413467;28;20065;-57
2022/06/15 06:37:32;;;;;;;7.88;2.10;;;20.50;60.80;;;;;;10413793;28;20127;-58
2022/06/15 06:42:32;;;;;;;5.03;1.80;;;20.50;60.70;;;;;;10397541;28;20040;-58
2022/06/15 06:47:33;;;;;;;13.77;2.58;;;20.50;60.90;;;;;;10413371;28;20462;-58
2022/06/15 06:52:34;;;;;;;13.10;2.70;;;20.50;61.10;;;;;;10411537;28;20117;-57
2022/06/15 06:57:34;;;;;;;13.35;3.08;;;20.50;61.10;;;;;;10428305;28;20056;-57
2022/06/15 07:02:35;;;;;;;9.00;2.60;;;20.60;61.40;;;;;;10411839;28;20040;-57
2022/06/15 07:07:36;;;;;;;8.00;1.98;;;20.60;61.00;;;;;;10410023;28;20028;-57
2022/06/15 07:12:38;;;;;;;8.50;2.10;;;20.60;61.00;;;;;;10411411;28;20100;-57
2022/06/15 07:17:40;;;;;;;7.78;2.88;;;20.60;61.00;;;;;;10409372;28;20037;-58
2022/06/15 07:22:41;;;;;;;3.97;2.38;;;20.60;61.00;;;;;;10409363;28;20049;-57
2022/06/15 07:27:43;;;;;;;6.38;1.70;;;20.60;61.10;;;;;;10410679;28;20060;-58
2022/06/15 07:32:44;;;;;;;6.35;2.63;;;20.60;61.10;;;;;;10410248;28;20051;-57
2022/06/15 07:37:45;;;;;;;3.70;1.90;;;20.60;61.20;;;;;;10411514;28;20026;-57
2022/06/15 07:42:46;;;;;;;5.65;2.20;;;20.60;61.20;;;;;;10411276;28;20405;-57
2022/06/15 07:53:11;;;;;;;8.32;2.90;;;20.70;61.10;;;;;;10399734;28;20042;-57
2022/06/15 07:58:13;;;;;;;4.80;1.85;;;20.70;61.20;;;;;;10410982;28;20029;-57
2022/06/15 08:03:15;;;;;;;4.10;2.10;;;20.70;61.20;;;;;;10412414;28;20033;-57
2022/06/15 08:08:24;;;;;;;5.43;1.90;;;20.70;61.10;;;;;;10412038;28;20115;-57
2022/06/15 08:13:24;;;;;;;6.75;2.47;;;20.70;61.10;;;;;;10412191;28;20509;-57
2022/06/15 08:18:31;;;;;;;3.97;2.10;;;20.70;61.00;;;;;;10411689;28;20037;-57
2022/06/15 08:23:36;;;;;;;3.85;1.67;;;20.70;61.00;;;;;;10410978;28;20136;-57
2022/06/15 08:28:40;;;;;;;4.68;1.90;;;20.70;61.60;;;;;;10410635;28;20025;-57
2022/06/15 08:33:41;;;;;;;6.18;2.22;;;20.70;60.90;;;;;;10410602;28;20041;-57
2022/06/15 08:38:42;;;;;;;5.53;1.92;;;20.70;61.10;;;;;;10409817;28;20041;-57
2022/06/15 08:44:12;;;;;;;3.72;1.90;;;20.80;61.10;;;;;;10407459;28;20477;-57
2022/06/15 08:49:56;;;;;;;5.45;1.77;;;20.80;61.10;;;;;;10415831;28;20033;-57
2022/06/15 08:55:43;;;;;;;3.85;1.52;;;20.80;61.00;;;;;;10417538;28;20076;-57
2022/06/15 09:00:45;;;;;;;3.95;1.70;;;20.80;61.10;;;;;;10417768;28;20080;-57
2022/06/15 09:06:17;;;;;;;3.17;1.50;;;20.80;61.00;;;;;;10416807;28;20040;-57
2022/06/15 09:12:49;;;;;;;4.63;2.50;;;20.80;61.00;;;;;;10417889;28;20029;-57
2022/06/15 09:17:20;;;;;;;2.97;1.88;;;20.80;61.10;;;;;;10417593;28;20037;-57
2022/06/15 09:22:27;;;;;;;4.65;2.15;;;20.80;61.20;;;;;;10417768;28;20037;-58
2022/06/15 09:27:41;;;;;;;5.32;1.98;;;20.80;61.10;;;;;;10416196;28;20030;-57
2022/06/15 09:32:50;;;;;;;1.65;1.50;;;20.80;61.10;;;;;;10415906;28;20046;-57
2022/06/15 09:37:55;;;;;;;2.20;1.30;;;20.80;61.10;;;;;;10415462;28;20053;-57
2022/06/15 09:43:44;;;;;;;2.38;1.67;;;20.80;61.20;;;;;;10416354;28;20037;-57
2022/06/15 09:49:24;;;;;;;4.50;1.70;;;20.80;61.20;;;;;;10417492;28;20505;-57
2022/06/15 09:54:49;;;;;;;3.72;2.22;;;20.80;61.00;;;;;;10416267;28;20144;-57
2022/06/15 09:59:50;;;;;;;2.60;1.52;;;20.80;61.80;;;;;;10404377;28;20473;-57
2022/06/15 10:04:52;;;;;;;2.00;1.25;;;20.80;61.30;;;;;;10414662;28;20091;-57
2022/06/15 10:10:22;;;;;;;2.95;1.73;;;20.80;61.30;;;;;;10414618;28;20040;-57
2022/06/15 10:15:40;;;;;;;3.65;1.30;;;20.90;61.20;;;;;;10411408;28;20374;-57
2022/06/15 10:20:41;;;;;;;4.97;1.55;;;20.90;61.10;;;;;;10415439;28;20496;-57
2022/06/15 10:25:55;;;;;;;2.45;1.52;;;20.90;61.20;;;;;;10413684;28;20030;-57
2022/06/15 10:31:01;;;;;;;3.13;1.55;;;20.90;61.20;;;;;;10414051;28;20029;-57
2022/06/15 10:36:02;;;;;;;4.30;1.35;;;20.90;61.20;;;;;;10414521;28;20045;-57
2022/06/15 10:46:22;;;;;;;2.67;1.80;;;20.90;61.10;;;;;;10414312;28;20412;-57
2022/06/15 10:51:35;;;;;;;3.00;1.20;;;20.90;60.70;;;;;;10415797;28;20060;-57
2022/06/15 11:02:21;;;;;;;2.80;1.52;;;21.00;61.10;;;;;;10414460;28;20041;-57
2022/06/15 11:07:22;;;;;;;2.60;1.30;;;21.00;60.80;;;;;;10403156;28;20037;-58
2022/06/15 11:12:24;;;;;;;1.92;1.23;;;21.00;60.90;;;;;;10412666;28;20025;-57
2022/06/15 11:23:30;;;;;;;3.35;1.80;;;21.10;60.80;;;;;;10410871;28;20037;-57
2022/06/15 11:28:37;;;;;;;3.15;1.63;;;21.10;61.30;;;;;;10412008;28;20086;-57
2022/06/15 11:33:57;;;;;;;3.83;1.90;;;21.10;60.20;;;;;;10404197;28;20056;-57
2022/06/15 11:39:07;;;;;;;2.60;1.63;;;21.10;59.60;;;;;;10410050;28;20029;-57
2022/06/15 11:44:17;;;;;;;3.47;1.65;;;21.10;59.20;;;;;;10406434;28;20033;-57
2022/06/15 11:49:39;;;;;;;3.05;1.90;;;21.20;59.10;;;;;;10411943;28;20392;-57
2022/06/15 11:55:15;;;;;;;3.88;2.05;;;21.20;58.70;;;;;;10411279;28;20021;-57
2022/06/15 12:00:32;;;;;;;3.58;1.75;;;21.20;58.40;;;;;;10411389;28;20154;-57
2022/06/15 12:05:34;;;;;;;4.00;1.63;;;21.20;58.40;;;;;;10412430;28;20034;-57
2022/06/15 12:10:48;;;;;;;4.90;1.83;;;21.20;58.60;;;;;;10409346;28;20538;-58
2022/06/15 12:16:06;;;;;;;2.45;1.63;;;21.20;58.70;;;;;;10392479;28;20120;-58
2022/06/15 12:21:32;;;;;;;3.00;2.25;;;21.20;58.80;;;;;;10412738;28;20040;-58
2022/06/15 12:27:04;;;;;;;2.63;1.60;;;21.20;59.00;;;;;;10401735;28;20060;-57
2022/06/15 12:32:41;;;;;;;3.17;1.80;;;21.20;59.00;;;;;;10406393;28;20438;-58
2022/06/15 12:37:53;;;;;;;3.08;2.33;;;21.30;58.80;;;;;;10418141;28;20039;-57
2022/06/15 12:43:19;;;;;;;5.78;2.25;;;21.30;58.80;;;;;;10418025;28;20038;-57
2022/06/15 12:49:24;;;;;;;3.47;1.55;;;21.30;58.50;;;;;;10421531;28;20102;-58
2022/06/15 12:55:03;;;;;;;2.95;1.77;;;21.30;58.50;;;;;;10421457;28;20037;-57
2022/06/15 13:00:18;;;;;;;6.00;2.00;;;21.30;58.00;;;;;;10409664;28;20032;-57
2022/06/15 13:05:32;;;;;;;6.75;2.38;;;21.40;57.80;;;;;;10417477;28;20124;-57
2022/06/15 13:10:32;;;;;;;4.82;2.10;;;21.30;57.70;;;;;;10415541;28;20040;-58
2022/06/15 13:15:55;;;;;;;3.33;1.85;;;21.40;57.80;;;;;;10416548;28;20478;-58
2022/06/15 13:21:01;;;;;;;3.80;2.20;;;21.30;57.50;;;;;;10385538;28;20075;-58
2022/06/15 13:26:23;;;;;;;5.85;1.92;;;21.40;57.40;;;;;;10416038;28;20093;-58
2022/06/15 13:31:45;;;;;;;4.75;2.35;;;21.30;57.30;;;;;;10404338;28;20029;-58
2022/06/15 13:37:23;;;;;;;6.53;2.60;;;21.30;57.30;;;;;;10416941;28;20566;-59
2022/06/15 13:42:40;;;;;;;5.72;2.28;;;21.40;57.40;;;;;;10415480;28;20091;-58
2022/06/15 13:47:54;;;;;;;3.40;1.77;;;21.30;57.30;;;;;;10416259;28;20121;-58
2022/06/15 13:52:59;;;;;;;5.88;3.08;;;21.30;57.30;;;;;;10414531;28;20065;-59
2022/06/15 13:58:38;;;;;;;4.00;1.75;;;21.40;56.70;;;;;;10414919;28;20577;-59
2022/06/15 14:04:16;;;;;;;5.10;2.45;;;21.40;57.30;;;;;;10412125;28;20033;-58
2022/06/15 14:09:58;;;;;;;4.13;1.98;;;21.40;57.50;;;;;;10395246;28;20513;-58
2022/06/15 14:15:46;;;;;;;5.32;2.13;;;21.30;57.50;;;;;;10374518;28;20053;-58
2022/06/15 14:20:47;;;;;;;4.60;1.88;;;21.30;57.40;;;;;;10403169;28;20068;-58
2022/06/15 14:25:50;;;;;;;7.57;2.08;;;21.30;57.50;;;;;;10413777;28;20037;-58
2022/06/15 14:31:06;;;;;;;3.40;2.08;;;21.30;57.60;;;;;;10413934;28;20388;-58
2022/06/15 14:36:15;;;;;;;4.25;2.30;;;21.30;57.70;;;;;;10412177;28;20125;-58
2022/06/15 14:41:22;;;;;;;5.30;2.28;;;21.30;57.80;;;;;;10399529;28;20038;-59
2022/06/15 14:46:35;;;;;;;5.57;2.13;;;21.30;57.80;;;;;;10410424;28;20049;-58
2022/06/15 14:51:36;;;;;;;6.25;2.08;;;21.20;57.70;;;;;;10405632;28;20022;-58
2022/06/15 14:56:46;;;;;;;9.77;2.35;;;21.30;58.00;;;;;;10412245;28;20573;-58
2022/06/15 15:02:00;;;;;;;11.48;3.03;;;21.30;58.10;;;;;;10412803;28;20109;-59
2022/06/15 15:12:36;;;;;;;6.63;2.67;;;21.30;58.70;;;;;;10377268;28;20045;-59
2022/06/15 15:18:08;;;;;;;6.65;2.30;;;21.30;58.70;;;;;;10402600;28;20056;-59
2022/06/15 15:23:09;;;;;;;7.70;2.42;;;21.30;58.70;;;;;;10413388;28;20129;-59
2022/06/15 15:38:52;;;;;;;7.88;2.72;;;21.30;59.00;;;;;;10410149;28;20552;-59
2022/06/15 15:43:53;;;;;;;5.13;2.13;;;21.30;58.90;;;;;;10409788;28;20069;-59
2022/06/15 15:48:53;;;;;;;7.70;2.05;;;21.20;59.10;;;;;;10414707;28;20457;-58
2022/06/15 15:53:54;;;;;;;20.83;12.85;;;21.30;59.10;;;;;;10420014;28;20107;-57
2022/06/15 15:58:56;;;;;;;11.70;6.95;;;21.40;61.40;;;;;;10420546;28;20112;-59
2022/06/15 16:03:57;;;;;;;22.60;6.50;;;21.70;62.90;;;;;;10418932;28;20026;-59
2022/06/15 16:08:59;;;;;;;24.45;6.35;;;21.60;60.50;;;;;;10404473;28;20029;-59
2022/06/15 16:13:59;;;;;;;12.90;5.45;;;21.50;60.90;;;;;;10403708;28;20510;-59
2022/06/15 16:19:05;;;;;;;20.30;5.07;;;21.50;56.30;;;;;;10398979;28;20037;-58
2022/06/15 16:24:08;;;;;;;9.75;4.47;;;21.50;59.50;;;;;;10399775;28;20091;-58
2022/06/15 16:29:10;;;;;;;14.70;4.50;;;21.50;59.90;;;;;;10417940;28;20060;-58
2022/06/15 16:34:11;;;;;;;7.85;2.92;;;21.40;59.30;;;;;;10417760;28;20217;-58
2022/06/15 16:39:12;;;;;;;11.85;3.97;;;21.50;55.40;;;;;;10406732;28;20127;-61
2022/06/15 16:44:12;;;;;;;9.05;3.63;;;21.50;59.00;;;;;;10413131;28;20052;-58
2022/06/15 16:49:13;;;;;;;8.48;3.38;;;21.50;58.30;;;;;;10406451;28;20124;-59
2022/06/15 16:54:14;;;;;;;8.40;3.85;;;21.50;58.10;;;;;;10403305;28;20520;-59
2022/06/15 16:59:23;;;;;;;7.22;3.60;;;21.40;57.90;;;;;;10396891;28;20478;-58
2022/06/15 17:04:25;;;;;;;8.93;3.08;;;21.40;57.80;;;;;;10397273;28;20033;-58
2022/06/15 17:09:28;;;;;;;7.38;2.55;;;21.50;54.10;;;;;;10400893;28;20023;-59
2022/06/15 17:14:29;;;;;;;4.78;3.05;;;21.60;54.10;;;;;;10386434;28;20033;-58
2022/06/15 17:19:30;;;;;;;4.03;2.60;;;21.50;56.60;;;;;;10416093;28;20029;-58
2022/06/15 17:24:32;;;;;;;4.50;2.22;;;21.50;54.70;;;;;;10409766;28;20022;-58
2022/06/15 17:29:34;;;;;;;5.15;2.28;;;21.50;56.50;;;;;;10395469;28;20030;-58
2022/06/15 17:34:35;;;;;;;4.35;2.55;;;21.50;56.50;;;;;;10398836;28;20589;-58
2022/06/15 17:39:36;;;;;;;5.40;3.03;;;21.50;55.90;;;;;;10390683;28;20484;-59
2022/06/15 17:44:38;;;;;;;6.07;2.67;;;21.50;56.40;;;;;;10379853;28;20026;-59
2022/06/15 17:49:39;;;;;;;3.97;3.13;;;21.50;55.60;;;;;;10393733;28;20042;-59
2022/06/15 17:54:40;;;;;;;6.32;3.30;;;21.50;55.30;;;;;;10379519;28;20124;-59
2022/06/15 17:59:40;;;;;;;4.07;3.25;;;21.50;54.90;;;;;;10386836;28;20116;-58
2022/06/15 18:04:41;;;;;;;4.07;3.30;;;21.60;55.00;;;;;;10392331;28;20819;-59
2022/06/15 18:09:42;;;;;;;6.65;3.83;;;21.60;54.90;;;;;;10397904;28;20057;-59
2022/06/15 18:14:45;;;;;;;6.60;3.17;;;21.60;54.80;;;;;;10390104;28;20428;-58
2022/06/15 18:20:16;;;;;;;4.38;3.10;;;21.60;54.80;;;;;;10413739;28;20530;-58
2022/06/15 18:25:18;;;;;;;4.38;2.60;;;21.70;54.80;;;;;;10395546;28;20041;-59
2022/06/15 18:30:19;;;;;;;8.07;2.65;;;21.70;55.20;;;;;;10404968;28;20026;-59
2022/06/15 18:35:25;;;;;;;3.33;2.25;;;21.70;54.90;;;;;;10391991;28;20046;-59
2022/06/15 18:40:26;;;;;;;4.53;2.40;;;21.70;54.60;;;;;;10382011;28;20045;-58
2022/06/15 18:50:46;;;;;;;;;;;21.70;54.80;;;;;;10393556;28;20498;-59
2022/06/15 18:55:46;;;;;;;4.90;2.20;;;21.60;55.70;;;;;;10396757;28;19917;-58
2022/06/15 19:00:47;;;;;;;5.10;2.10;;;21.60;55.00;;;;;;10398382;28;20037;-59
2022/06/15 19:05:48;;;;;;;5.10;1.98;;;21.60;56.00;;;;;;10397001;28;20083;-59
2022/06/15 19:10:49;;;;;;;4.72;2.25;;;21.70;56.70;;;;;;10405736;28;20036;-58
2022/06/15 19:15:50;;;;;;;6.88;2.00;;;21.60;56.70;;;;;;10387140;28;20029;-58
2022/06/15 19:20:52;;;;;;;3.90;2.20;;;21.60;56.70;;;;;;10411502;28;20037;-57
2022/06/15 19:25:55;;;;;;;3.28;2.10;;;21.60;56.90;;;;;;10408097;28;20048;-58
2022/06/15 19:31:01;;;;;;;3.33;2.03;;;21.60;56.70;;;;;;10391197;28;20053;-58
2022/06/15 19:36:02;;;;;;;3.15;2.05;;;21.70;56.60;;;;;;10408802;28;20464;-57
2022/06/15 19:41:04;;;;;;;4.40;2.03;;;21.60;56.20;;;;;;10404318;28;20559;-58
2022/06/15 19:46:05;;;;;;;5.35;2.00;;;21.60;56.20;;;;;;10400278;28;20051;-58
2022/06/15 19:51:05;;;;;;;3.05;1.98;;;21.60;55.70;;;;;;10398975;28;20120;-58
2022/06/15 19:56:06;;;;;;;7.70;3.15;;;21.60;55.90;;;;;;10413030;28;20123;-58
2022/06/15 20:01:07;;;;;;;3.42;2.20;;;21.60;56.40;;;;;;10385421;28;20022;-58
2022/06/15 20:06:08;;;;;;;4.60;2.33;;;21.60;57.40;;;;;;10402755;28;20125;-58
2022/06/15 20:11:08;;;;;;;4.55;2.58;;;21.60;56.50;;;;;;10406690;28;20398;-58
2022/06/15 20:16:09;;;;;;;2.55;2.03;;;21.60;56.30;;;;;;10404472;28;20504;-59
2022/06/15 20:21:12;;;;;;;8.43;2.03;;;21.60;56.20;;;;;;10406544;28;20120;-59
2022/06/15 20:26:19;;;;;;;2.72;1.85;;;21.60;56.10;;;;;;10408410;28;20037;-58
2022/06/15 20:31:23;;;;;;;3.17;1.88;;;21.60;56.00;;;;;;10409843;28;20026;-58
2022/06/15 20:36:24;;;;;;;3.83;1.55;;;21.60;56.10;;;;;;10409475;28;20054;-59
2022/06/15 20:41:27;;;;;;;3.17;1.80;;;21.60;56.10;;;;;;10404777;28;20038;-58
2022/06/15 20:46:32;;;;;;;2.75;1.75;;;21.60;56.30;;;;;;10432456;28;20046;-58
2022/06/15 20:51:33;;;;;;;2.65;1.83;;;21.60;56.50;;;;;;10419863;28;20036;-59
2022/06/15 20:56:42;;;;;;;5.95;1.90;;;21.60;56.70;;;;;;10417067;28;20033;-59
2022/06/15 21:01:44;;;;;;;3.17;1.98;;;21.60;56.90;;;;;;10417317;28;20029;-59
2022/06/15 21:06:45;;;;;;;4.07;1.90;;;21.60;56.90;;;;;;10412475;28;20521;-58
2022/06/15 21:22:25;;;;;;;3.15;1.98;;;21.60;57.20;;;;;;10416514;28;20361;-58
2022/06/15 21:27:26;;;;;;;2.15;1.85;;;21.60;57.30;;;;;;10417123;28;20104;-58
2022/06/15 21:32:27;;;;;;;3.22;1.77;;;21.60;57.20;;;;;;10415796;28;20025;-58
2022/06/15 21:37:28;;;;;;;2.63;1.70;;;21.60;57.20;;;;;;10416864;28;20486;-59
2022/06/15 21:42:29;;;;;;;3.17;1.70;;;21.60;57.30;;;;;;10402425;28;20028;-58
2022/06/15 21:47:33;;;;;;;2.80;1.83;;;21.60;57.30;;;;;;10415298;28;20035;-58
2022/06/15 21:52:34;;;;;;;2.10;1.48;;;21.60;57.30;;;;;;10417622;28;20025;-59
2022/06/15 21:57:35;;;;;;;4.63;2.15;;;21.60;57.60;;;;;;10414379;28;20049;-59
2022/06/15 22:02:36;;;;;;;3.17;2.40;;;21.60;57.40;;;;;;10415905;28;20413;-59
2022/06/15 22:07:37;;;;;;;3.33;2.10;;;21.60;57.50;;;;;;10414556;28;20029;-58
2022/06/15 22:12:38;;;;;;;2.95;1.90;;;21.60;57.50;;;;;;10397770;28;20056;-58
2022/06/15 22:17:39;;;;;;;2.05;1.80;;;21.60;57.50;;;;;;10415220;28;20466;-59
2022/06/15 22:22:39;;;;;;;3.47;1.90;;;21.60;57.60;;;;;;10413657;28;20501;-58
2022/06/15 22:27:41;;;;;;;2.60;1.63;;;21.60;57.80;;;;;;10413897;28;20026;-59
2022/06/15 22:32:44;;;;;;;2.78;1.70;;;21.60;57.90;;;;;;10413234;28;20040;-58
2022/06/15 22:37:45;;;;;;;2.60;1.90;;;21.60;57.80;;;;;;10414257;28;20456;-59
2022/06/15 22:42:49;;;;;;;2.47;1.48;;;21.60;57.70;;;;;;10413303;28;20043;-58
2022/06/15 22:47:49;;;;;;;3.20;1.90;;;21.60;57.80;;;;;;10414205;28;20059;-59
2022/06/15 22:52:50;;;;;;;3.67;2.10;;;21.60;57.70;;;;;;10413316;28;20029;-58
2022/06/15 22:57:52;;;;;;;3.03;2.10;;;21.60;57.70;;;;;;10429347;28;20037;-59
2022/06/15 23:03:04;;;;;;;2.70;1.67;;;21.60;57.70;;;;;;10411847;28;20064;-59
2022/06/15 23:08:07;;;;;;;3.17;2.13;;;21.60;57.80;;;;;;10413610;28;20121;-58
2022/06/15 23:13:09;;;;;;;3.95;2.03;;;21.60;57.70;;;;;;10412088;28;20025;-59
2022/06/15 23:18:09;;;;;;;2.63;1.92;;;21.60;57.80;;;;;;10411847;28;20116;-59
2022/06/15 23:23:10;;;;;;;2.78;2.00;;;21.60;57.80;;;;;;10413243;28;20529;-58
2022/06/15 23:28:11;;;;;;;2.00;1.80;;;21.60;57.80;;;;;;10411465;28;20091;-59
2022/06/15 23:33:12;;;;;;;3.65;1.70;;;21.50;57.80;;;;;;10412677;28;20049;-58
2022/06/15 23:38:13;;;;;;;2.92;1.90;;;21.60;57.70;;;;;;10412278;28;20502;-59
2022/06/15 23:43:14;;;;;;;2.28;1.70;;;21.60;57.80;;;;;;10399053;28;20037;-58
2022/06/15 23:48:14;;;;;;;3.92;2.05;;;21.50;57.70;;;;;;10413759;28;20116;-58
2022/06/15 23:53:19;;;;;;;3.33;1.95;;;21.60;57.90;;;;;;10411063;28;20043;-59
2022/06/15 23:58:20;;;;;;;2.30;2.03;;;21.50;57.90;;;;;;10411009;28;20521;-59
